sensor_id;sensor_type;location;lat;lon;timestamp;P1;durP1;ratioP1;P2;durP2;ratioP2
54261;SDS011;40174;52.364;6.452;2022-09-09T00:02:02;3.65;;;1.90;;
54261;SDS011;40174;52.364;6.452;2022-09-09T00:04:37;3.38;;;1.30;;
54261;SDS011;40174;52.364;6.452;2022-09-09T00:07:07;4.30;;;1.60;;
54261;SDS011;40174;52.364;6.452;2022-09-09T00:09:40;2.53;;;1.38;;
54261;SDS011;40174;52.364;6.452;2022-09-09T00:12:15;5.07;;;1.67;;
54261;SDS011;40174;52.364;6.452;2022-09-09T00:14:47;3.65;;;1.70;;
54261;SDS011;40174;52.364;6.452;2022-09-09T00:17:20;4.32;;;1.60;;
54261;SDS011;40174;52.364;6.452;2022-09-09T00:19:53;3.70;;;1.50;;
54261;SDS011;40174;52.364;6.452;2022-09-09T00:22:27;2.97;;;1.45;;
54261;SDS011;40174;52.364;6.452;2022-09-09T00:24:58;3.28;;;1.40;;
54261;SDS011;40174;52.364;6.452;2022-09-09T00:27:36;4.18;;;1.50;;
54261;SDS011;40174;52.364;6.452;2022-09-09T00:30:13;2.60;;;1.25;;
54261;SDS011;40174;52.364;6.452;2022-09-09T00:32:46;3.35;;;1.48;;
54261;SDS011;40174;52.364;6.452;2022-09-09T00:35:15;3.47;;;1.40;;
54261;SDS011;40174;52.364;6.452;2022-09-09T00:37:44;5.38;;;1.35;;
54261;SDS011;40174;52.364;6.452;2022-09-09T00:40:17;3.25;;;1.50;;
54261;SDS011;40174;52.364;6.452;2022-09-09T00:42:50;5.53;;;1.35;;
54261;SDS011;40174;52.364;6.452;2022-09-09T00:45:33;3.10;;;1.35;;
54261;SDS011;40174;52.364;6.452;2022-09-09T00:48:14;3.33;;;1.40;;
54261;SDS011;40174;52.364;6.452;2022-09-09T00:50:44;4.13;;;1.42;;
54261;SDS011;40174;52.364;6.452;2022-09-09T00:53:21;5.22;;;1.70;;
54261;SDS011;40174;52.364;6.452;2022-09-09T00:55:59;2.90;;;1.48;;
54261;SDS011;40174;52.364;6.452;2022-09-09T00:58:31;2.60;;;1.40;;
54261;SDS011;40174;52.364;6.452;2022-09-09T01:01:00;3.90;;;1.40;;
54261;SDS011;40174;52.364;6.452;2022-09-09T01:03:34;8.18;;;1.70;;
54261;SDS011;40174;52.364;6.452;2022-09-09T01:06:11;2.70;;;1.30;;
54261;SDS011;40174;52.364;6.452;2022-09-09T01:08:51;2.85;;;1.25;;
54261;SDS011;40174;52.364;6.452;2022-09-09T01:11:31;3.17;;;1.20;;
54261;SDS011;40174;52.364;6.452;2022-09-09T01:14:05;2.28;;;1.20;;
54261;SDS011;40174;52.364;6.452;2022-09-09T01:16:40;4.07;;;1.10;;
54261;SDS011;40174;52.364;6.452;2022-09-09T01:19:09;5.53;;;1.40;;
54261;SDS011;40174;52.364;6.452;2022-09-09T01:21:43;3.63;;;1.35;;
54261;SDS011;40174;52.364;6.452;2022-09-09T01:24:19;6.53;;;2.03;;
54261;SDS011;40174;52.364;6.452;2022-09-09T01:27:19;4.45;;;2.22;;
54261;SDS011;40174;52.364;6.452;2022-09-09T01:29:47;4.68;;;1.80;;
54261;SDS011;40174;52.364;6.452;2022-09-09T01:35:04;8.73;;;2.33;;
54261;SDS011;40174;52.364;6.452;2022-09-09T01:37:34;8.38;;;2.45;;
54261;SDS011;40174;52.364;6.452;2022-09-09T01:40:01;6.78;;;2.80;;
54261;SDS011;40174;52.364;6.452;2022-09-09T01:42:31;6.32;;;2.70;;
54261;SDS011;40174;52.364;6.452;2022-09-09T01:44:58;10.60;;;3.00;;
54261;SDS011;40174;52.364;6.452;2022-09-09T01:47:25;9.68;;;2.90;;
54261;SDS011;40174;52.364;6.452;2022-09-09T01:50:14;7.10;;;2.92;;
54261;SDS011;40174;52.364;6.452;2022-09-09T01:52:42;7.10;;;2.70;;
54261;SDS011;40174;52.364;6.452;2022-09-09T01:55:14;5.80;;;2.65;;
54261;SDS011;40174;52.364;6.452;2022-09-09T01:57:45;8.07;;;2.72;;
54261;SDS011;40174;52.364;6.452;2022-09-09T02:00:22;9.82;;;3.60;;
54261;SDS011;40174;52.364;6.452;2022-09-09T02:02:55;7.78;;;2.53;;
54261;SDS011;40174;52.364;6.452;2022-09-09T02:05:40;7.25;;;2.65;;
54261;SDS011;40174;52.364;6.452;2022-09-09T02:08:20;7.28;;;3.10;;
54261;SDS011;40174;52.364;6.452;2022-09-09T02:11:01;6.05;;;2.72;;
54261;SDS011;40174;52.364;6.452;2022-09-09T02:13:42;7.63;;;2.80;;
54261;SDS011;40174;52.364;6.452;2022-09-09T02:16:14;6.75;;;2.97;;
54261;SDS011;40174;52.364;6.452;2022-09-09T02:18:48;9.88;;;3.20;;
54261;SDS011;40174;52.364;6.452;2022-09-09T02:21:28;6.82;;;3.50;;
54261;SDS011;40174;52.364;6.452;2022-09-09T02:23:57;6.53;;;2.50;;
54261;SDS011;40174;52.364;6.452;2022-09-09T02:26:29;7.88;;;3.13;;
54261;SDS011;40174;52.364;6.452;2022-09-09T02:29:06;9.87;;;3.77;;
54261;SDS011;40174;52.364;6.452;2022-09-09T02:31:36;8.88;;;3.50;;
54261;SDS011;40174;52.364;6.452;2022-09-09T02:34:07;6.10;;;2.65;;
54261;SDS011;40174;52.364;6.452;2022-09-09T02:36:37;6.15;;;2.75;;
54261;SDS011;40174;52.364;6.452;2022-09-09T02:39:07;7.47;;;2.70;;
54261;SDS011;40174;52.364;6.452;2022-09-09T02:41:36;7.18;;;3.22;;
54261;SDS011;40174;52.364;6.452;2022-09-09T02:44:08;8.23;;;2.72;;
54261;SDS011;40174;52.364;6.452;2022-09-09T02:46:37;8.55;;;2.85;;
54261;SDS011;40174;52.364;6.452;2022-09-09T02:49:18;6.18;;;2.92;;
54261;SDS011;40174;52.364;6.452;2022-09-09T02:51:51;11.82;;;3.08;;
54261;SDS011;40174;52.364;6.452;2022-09-09T02:54:27;6.05;;;2.55;;
54261;SDS011;40174;52.364;6.452;2022-09-09T02:56:57;8.25;;;3.28;;
54261;SDS011;40174;52.364;6.452;2022-09-09T02:59:35;7.53;;;3.30;;
54261;SDS011;40174;52.364;6.452;2022-09-09T03:02:02;6.95;;;3.20;;
54261;SDS011;40174;52.364;6.452;2022-09-09T03:04:30;8.27;;;3.30;;
54261;SDS011;40174;52.364;6.452;2022-09-09T03:06:57;6.45;;;3.20;;
54261;SDS011;40174;52.364;6.452;2022-09-09T03:09:24;7.40;;;3.22;;
54261;SDS011;40174;52.364;6.452;2022-09-09T03:11:52;7.80;;;3.20;;
54261;SDS011;40174;52.364;6.452;2022-09-09T03:14:20;7.38;;;3.00;;
54261;SDS011;40174;52.364;6.452;2022-09-09T03:16:51;5.72;;;3.13;;
54261;SDS011;40174;52.364;6.452;2022-09-09T03:19:18;5.93;;;3.15;;
54261;SDS011;40174;52.364;6.452;2022-09-09T03:21:45;6.35;;;3.35;;
54261;SDS011;40174;52.364;6.452;2022-09-09T03:24:12;6.88;;;2.85;;
54261;SDS011;40174;52.364;6.452;2022-09-09T03:26:39;8.25;;;3.22;;
54261;SDS011;40174;52.364;6.452;2022-09-09T03:29:10;8.60;;;3.17;;
54261;SDS011;40174;52.364;6.452;2022-09-09T03:31:37;8.10;;;3.40;;
54261;SDS011;40174;52.364;6.452;2022-09-09T03:34:06;5.93;;;2.50;;
54261;SDS011;40174;52.364;6.452;2022-09-09T03:36:34;7.45;;;3.35;;
54261;SDS011;40174;52.364;6.452;2022-09-09T03:39:01;7.03;;;3.33;;
54261;SDS011;40174;52.364;6.452;2022-09-09T03:41:30;7.13;;;3.45;;
54261;SDS011;40174;52.364;6.452;2022-09-09T03:43:59;6.72;;;2.88;;
54261;SDS011;40174;52.364;6.452;2022-09-09T03:46:29;6.75;;;3.20;;
54261;SDS011;40174;52.364;6.452;2022-09-09T03:48:56;6.75;;;2.90;;
54261;SDS011;40174;52.364;6.452;2022-09-09T03:51:24;6.95;;;2.58;;
54261;SDS011;40174;52.364;6.452;2022-09-09T03:53:51;6.40;;;2.80;;
54261;SDS011;40174;52.364;6.452;2022-09-09T03:56:19;8.73;;;3.33;;
54261;SDS011;40174;52.364;6.452;2022-09-09T03:58:47;5.85;;;2.88;;
54261;SDS011;40174;52.364;6.452;2022-09-09T04:01:13;7.40;;;3.25;;
54261;SDS011;40174;52.364;6.452;2022-09-09T04:03:43;11.02;;;3.45;;
54261;SDS011;40174;52.364;6.452;2022-09-09T04:06:10;9.68;;;3.47;;
54261;SDS011;40174;52.364;6.452;2022-09-09T04:08:42;5.38;;;2.75;;
54261;SDS011;40174;52.364;6.452;2022-09-09T04:11:11;7.50;;;3.75;;
54261;SDS011;40174;52.364;6.452;2022-09-09T04:13:38;7.18;;;3.00;;
54261;SDS011;40174;52.364;6.452;2022-09-09T04:16:07;5.60;;;2.50;;
54261;SDS011;40174;52.364;6.452;2022-09-09T04:18:36;11.10;;;3.17;;
54261;SDS011;40174;52.364;6.452;2022-09-09T04:21:03;5.63;;;2.67;;
54261;SDS011;40174;52.364;6.452;2022-09-09T04:23:32;12.63;;;3.15;;
54261;SDS011;40174;52.364;6.452;2022-09-09T04:26:01;8.80;;;3.25;;
54261;SDS011;40174;52.364;6.452;2022-09-09T04:28:31;5.47;;;2.92;;
54261;SDS011;40174;52.364;6.452;2022-09-09T04:31:03;8.13;;;3.00;;
54261;SDS011;40174;52.364;6.452;2022-09-09T04:33:31;6.53;;;3.13;;
54261;SDS011;40174;52.364;6.452;2022-09-09T04:35:58;7.80;;;3.25;;
54261;SDS011;40174;52.364;6.452;2022-09-09T04:38:25;5.68;;;2.50;;
54261;SDS011;40174;52.364;6.452;2022-09-09T04:40:53;6.82;;;3.20;;
54261;SDS011;40174;52.364;6.452;2022-09-09T04:43:22;12.00;;;3.30;;
54261;SDS011;40174;52.364;6.452;2022-09-09T04:45:51;6.15;;;2.83;;
54261;SDS011;40174;52.364;6.452;2022-09-09T04:48:20;7.25;;;2.95;;
54261;SDS011;40174;52.364;6.452;2022-09-09T04:50:55;5.20;;;2.80;;
54261;SDS011;40174;52.364;6.452;2022-09-09T04:53:22;6.78;;;3.25;;
54261;SDS011;40174;52.364;6.452;2022-09-09T04:55:51;6.95;;;3.28;;
54261;SDS011;40174;52.364;6.452;2022-09-09T04:58:17;6.30;;;3.00;;
54261;SDS011;40174;52.364;6.452;2022-09-09T05:00:48;6.85;;;3.08;;
54261;SDS011;40174;52.364;6.452;2022-09-09T05:03:16;6.38;;;3.00;;
54261;SDS011;40174;52.364;6.452;2022-09-09T05:05:43;6.82;;;3.20;;
54261;SDS011;40174;52.364;6.452;2022-09-09T05:08:10;5.50;;;2.50;;
54261;SDS011;40174;52.364;6.452;2022-09-09T05:10:37;5.60;;;2.92;;
54261;SDS011;40174;52.364;6.452;2022-09-09T05:13:07;5.80;;;2.88;;
54261;SDS011;40174;52.364;6.452;2022-09-09T05:15:35;7.80;;;3.10;;
54261;SDS011;40174;52.364;6.452;2022-09-09T05:18:03;6.10;;;3.22;;
54261;SDS011;40174;52.364;6.452;2022-09-09T05:20:31;6.85;;;2.95;;
54261;SDS011;40174;52.364;6.452;2022-09-09T05:22:58;5.13;;;2.45;;
54261;SDS011;40174;52.364;6.452;2022-09-09T05:25:27;6.05;;;2.78;;
54261;SDS011;40174;52.364;6.452;2022-09-09T05:27:55;6.45;;;3.13;;
54261;SDS011;40174;52.364;6.452;2022-09-09T05:30:21;6.43;;;2.75;;
54261;SDS011;40174;52.364;6.452;2022-09-09T05:32:50;7.97;;;2.65;;
54261;SDS011;40174;52.364;6.452;2022-09-09T05:35:18;8.98;;;2.78;;
54261;SDS011;40174;52.364;6.452;2022-09-09T05:37:45;7.75;;;2.88;;
54261;SDS011;40174;52.364;6.452;2022-09-09T05:40:13;8.40;;;2.78;;
54261;SDS011;40174;52.364;6.452;2022-09-09T05:42:39;7.28;;;2.83;;
54261;SDS011;40174;52.364;6.452;2022-09-09T05:45:06;6.75;;;2.80;;
54261;SDS011;40174;52.364;6.452;2022-09-09T05:47:34;8.18;;;2.72;;
54261;SDS011;40174;52.364;6.452;2022-09-09T05:50:03;5.65;;;2.70;;
54261;SDS011;40174;52.364;6.452;2022-09-09T05:52:32;7.97;;;2.63;;
54261;SDS011;40174;52.364;6.452;2022-09-09T05:54:58;6.82;;;2.53;;
54261;SDS011;40174;52.364;6.452;2022-09-09T05:57:25;11.73;;;2.95;;
54261;SDS011;40174;52.364;6.452;2022-09-09T05:59:52;6.18;;;2.75;;
54261;SDS011;40174;52.364;6.452;2022-09-09T06:02:18;9.70;;;2.60;;
54261;SDS011;40174;52.364;6.452;2022-09-09T06:04:45;6.43;;;2.50;;
54261;SDS011;40174;52.364;6.452;2022-09-09T06:07:12;9.80;;;2.28;;
54261;SDS011;40174;52.364;6.452;2022-09-09T06:09:40;7.03;;;2.33;;
54261;SDS011;40174;52.364;6.452;2022-09-09T06:12:07;8.63;;;2.55;;
54261;SDS011;40174;52.364;6.452;2022-09-09T06:14:35;7.57;;;2.50;;
54261;SDS011;40174;52.364;6.452;2022-09-09T06:17:03;5.20;;;2.33;;
54261;SDS011;40174;52.364;6.452;2022-09-09T06:19:30;10.00;;;2.90;;
54261;SDS011;40174;52.364;6.452;2022-09-09T06:21:58;5.63;;;2.47;;
54261;SDS011;40174;52.364;6.452;2022-09-09T06:24:26;5.25;;;2.83;;
54261;SDS011;40174;52.364;6.452;2022-09-09T06:26:54;6.38;;;3.28;;
54261;SDS011;40174;52.364;6.452;2022-09-09T06:29:26;7.45;;;2.80;;
54261;SDS011;40174;52.364;6.452;2022-09-09T06:31:52;6.70;;;2.20;;
54261;SDS011;40174;52.364;6.452;2022-09-09T06:34:21;9.50;;;2.33;;
54261;SDS011;40174;52.364;6.452;2022-09-09T06:36:58;7.88;;;2.67;;
54261;SDS011;40174;52.364;6.452;2022-09-09T06:39:30;5.25;;;2.10;;
54261;SDS011;40174;52.364;6.452;2022-09-09T06:41:58;8.77;;;2.58;;
54261;SDS011;40174;52.364;6.452;2022-09-09T06:44:43;6.22;;;2.42;;
54261;SDS011;40174;52.364;6.452;2022-09-09T06:47:17;8.27;;;2.47;;
54261;SDS011;40174;52.364;6.452;2022-09-09T06:49:44;6.88;;;2.40;;
54261;SDS011;40174;52.364;6.452;2022-09-09T06:52:11;8.85;;;2.65;;
54261;SDS011;40174;52.364;6.452;2022-09-09T06:54:38;6.30;;;2.30;;
54261;SDS011;40174;52.364;6.452;2022-09-09T06:57:06;10.70;;;2.42;;
54261;SDS011;40174;52.364;6.452;2022-09-09T06:59:33;7.88;;;2.42;;
54261;SDS011;40174;52.364;6.452;2022-09-09T07:02:01;4.68;;;2.05;;
54261;SDS011;40174;52.364;6.452;2022-09-09T07:04:28;8.65;;;2.20;;
54261;SDS011;40174;52.364;6.452;2022-09-09T07:06:55;6.40;;;2.10;;
54261;SDS011;40174;52.364;6.452;2022-09-09T07:09:24;8.32;;;2.53;;
54261;SDS011;40174;52.364;6.452;2022-09-09T07:11:52;5.00;;;1.80;;
54261;SDS011;40174;52.364;6.452;2022-09-09T07:14:22;6.82;;;2.33;;
54261;SDS011;40174;52.364;6.452;2022-09-09T07:16:56;5.40;;;2.17;;
54261;SDS011;40174;52.364;6.452;2022-09-09T07:19:23;10.20;;;2.00;;
54261;SDS011;40174;52.364;6.452;2022-09-09T07:21:52;6.00;;;1.70;;
54261;SDS011;40174;52.364;6.452;2022-09-09T07:24:21;12.88;;;2.30;;
54261;SDS011;40174;52.364;6.452;2022-09-09T07:26:48;5.80;;;2.00;;
54261;SDS011;40174;52.364;6.452;2022-09-09T07:29:15;5.15;;;1.65;;
54261;SDS011;40174;52.364;6.452;2022-09-09T07:31:45;5.00;;;2.03;;
54261;SDS011;40174;52.364;6.452;2022-09-09T07:34:16;7.72;;;2.47;;
54261;SDS011;40174;52.364;6.452;2022-09-09T07:36:43;8.02;;;2.00;;
54261;SDS011;40174;52.364;6.452;2022-09-09T07:39:12;8.68;;;1.90;;
54261;SDS011;40174;52.364;6.452;2022-09-09T07:41:44;8.27;;;1.80;;
54261;SDS011;40174;52.364;6.452;2022-09-09T07:44:16;7.50;;;2.05;;
54261;SDS011;40174;52.364;6.452;2022-09-09T07:46:50;3.47;;;1.70;;
54261;SDS011;40174;52.364;6.452;2022-09-09T07:49:21;4.38;;;1.90;;
54261;SDS011;40174;52.364;6.452;2022-09-09T07:51:49;7.72;;;1.70;;
54261;SDS011;40174;52.364;6.452;2022-09-09T07:54:17;12.05;;;2.17;;
54261;SDS011;40174;52.364;6.452;2022-09-09T07:56:49;6.13;;;1.75;;
54261;SDS011;40174;52.364;6.452;2022-09-09T07:59:16;5.88;;;2.00;;
54261;SDS011;40174;52.364;6.452;2022-09-09T08:01:46;5.72;;;1.75;;
54261;SDS011;40174;52.364;6.452;2022-09-09T08:04:20;6.85;;;1.83;;
54261;SDS011;40174;52.364;6.452;2022-09-09T08:06:50;8.45;;;2.00;;
54261;SDS011;40174;52.364;6.452;2022-09-09T08:09:20;7.53;;;1.85;;
54261;SDS011;40174;52.364;6.452;2022-09-09T08:11:47;3.72;;;1.58;;
54261;SDS011;40174;52.364;6.452;2022-09-09T08:14:15;3.83;;;1.63;;
54261;SDS011;40174;52.364;6.452;2022-09-09T08:16:43;7.03;;;2.00;;
54261;SDS011;40174;52.364;6.452;2022-09-09T08:19:15;8.18;;;2.65;;
54261;SDS011;40174;52.364;6.452;2022-09-09T08:21:44;8.27;;;1.60;;
54261;SDS011;40174;52.364;6.452;2022-09-09T08:24:12;5.10;;;1.85;;
54261;SDS011;40174;52.364;6.452;2022-09-09T08:26:42;12.00;;;2.10;;
54261;SDS011;40174;52.364;6.452;2022-09-09T08:29:11;6.53;;;1.50;;
54261;SDS011;40174;52.364;6.452;2022-09-09T08:31:40;7.43;;;1.70;;
54261;SDS011;40174;52.364;6.452;2022-09-09T08:34:08;8.48;;;1.70;;
54261;SDS011;40174;52.364;6.452;2022-09-09T08:36:37;5.75;;;1.75;;
54261;SDS011;40174;52.364;6.452;2022-09-09T08:39:07;2.67;;;1.27;;
54261;SDS011;40174;52.364;6.452;2022-09-09T08:41:38;7.05;;;1.85;;
54261;SDS011;40174;52.364;6.452;2022-09-09T08:44:13;10.38;;;2.28;;
54261;SDS011;40174;52.364;6.452;2022-09-09T08:46:47;4.68;;;1.52;;
54261;SDS011;40174;52.364;6.452;2022-09-09T08:49:32;5.68;;;1.73;;
54261;SDS011;40174;52.364;6.452;2022-09-09T08:52:08;4.85;;;1.40;;
54261;SDS011;40174;52.364;6.452;2022-09-09T08:54:44;5.75;;;1.38;;
54261;SDS011;40174;52.364;6.452;2022-09-09T08:57:13;3.20;;;1.20;;
54261;SDS011;40174;52.364;6.452;2022-09-09T08:59:44;11.00;;;1.90;;
54261;SDS011;40174;52.364;6.452;2022-09-09T09:02:14;4.95;;;1.30;;
54261;SDS011;40174;52.364;6.452;2022-09-09T09:04:52;5.82;;;1.83;;
54261;SDS011;40174;52.364;6.452;2022-09-09T09:07:29;8.48;;;1.90;;
54261;SDS011;40174;52.364;6.452;2022-09-09T09:10:09;3.80;;;1.35;;
54261;SDS011;40174;52.364;6.452;2022-09-09T09:12:42;4.88;;;1.35;;
54261;SDS011;40174;52.364;6.452;2022-09-09T09:15:14;8.07;;;1.15;;
54261;SDS011;40174;52.364;6.452;2022-09-09T09:17:45;5.15;;;1.30;;
54261;SDS011;40174;52.364;6.452;2022-09-09T09:20:12;7.18;;;1.60;;
54261;SDS011;40174;52.364;6.452;2022-09-09T09:22:43;7.38;;;1.40;;
54261;SDS011;40174;52.364;6.452;2022-09-09T09:25:19;6.38;;;1.42;;
54261;SDS011;40174;52.364;6.452;2022-09-09T09:27:49;5.15;;;1.40;;
54261;SDS011;40174;52.364;6.452;2022-09-09T09:30:28;4.80;;;1.17;;
54261;SDS011;40174;52.364;6.452;2022-09-09T09:33:05;6.40;;;1.30;;
54261;SDS011;40174;52.364;6.452;2022-09-09T09:35:40;9.32;;;1.50;;
54261;SDS011;40174;52.364;6.452;2022-09-09T09:38:10;8.30;;;1.48;;
54261;SDS011;40174;52.364;6.452;2022-09-09T09:40:52;6.63;;;1.92;;
54261;SDS011;40174;52.364;6.452;2022-09-09T09:43:23;7.45;;;1.40;;
54261;SDS011;40174;52.364;6.452;2022-09-09T09:45:53;8.20;;;1.48;;
54261;SDS011;40174;52.364;6.452;2022-09-09T09:48:20;3.55;;;1.30;;
54261;SDS011;40174;52.364;6.452;2022-09-09T09:50:49;5.43;;;1.27;;
54261;SDS011;40174;52.364;6.452;2022-09-09T09:53:19;6.10;;;1.02;;
54261;SDS011;40174;52.364;6.452;2022-09-09T09:55:52;3.97;;;1.10;;
54261;SDS011;40174;52.364;6.452;2022-09-09T09:58:22;3.95;;;1.13;;
54261;SDS011;40174;52.364;6.452;2022-09-09T10:00:51;5.07;;;1.20;;
54261;SDS011;40174;52.364;6.452;2022-09-09T10:03:24;3.78;;;1.10;;
54261;SDS011;40174;52.364;6.452;2022-09-09T10:05:53;5.18;;;1.20;;
54261;SDS011;40174;52.364;6.452;2022-09-09T10:08:21;5.88;;;1.05;;
54261;SDS011;40174;52.364;6.452;2022-09-09T10:10:56;6.30;;;1.50;;
54261;SDS011;40174;52.364;6.452;2022-09-09T10:13:30;5.20;;;1.35;;
54261;SDS011;40174;52.364;6.452;2022-09-09T10:16:16;3.83;;;1.05;;
54261;SDS011;40174;52.364;6.452;2022-09-09T10:18:58;3.60;;;1.35;;
54261;SDS011;40174;52.364;6.452;2022-09-09T10:21:37;7.80;;;1.20;;
54261;SDS011;40174;52.364;6.452;2022-09-09T10:24:19;6.00;;;1.42;;
54261;SDS011;40174;52.364;6.452;2022-09-09T10:27:05;4.38;;;0.80;;
54261;SDS011;40174;52.364;6.452;2022-09-09T10:29:59;6.00;;;2.85;;
54261;SDS011;40174;52.364;6.452;2022-09-09T10:32:36;6.15;;;1.50;;
54261;SDS011;40174;52.364;6.452;2022-09-09T10:35:09;6.75;;;0.95;;
54261;SDS011;40174;52.364;6.452;2022-09-09T10:37:41;9.00;;;1.17;;
54261;SDS011;40174;52.364;6.452;2022-09-09T10:40:21;6.03;;;1.45;;
54261;SDS011;40174;52.364;6.452;2022-09-09T10:42:59;7.25;;;1.02;;
54261;SDS011;40174;52.364;6.452;2022-09-09T10:45:34;6.07;;;1.10;;
54261;SDS011;40174;52.364;6.452;2022-09-09T10:48:15;4.57;;;1.40;;
54261;SDS011;40174;52.364;6.452;2022-09-09T10:50:54;6.55;;;1.10;;
54261;SDS011;40174;52.364;6.452;2022-09-09T10:53:27;6.53;;;1.08;;
54261;SDS011;40174;52.364;6.452;2022-09-09T10:56:04;5.68;;;0.90;;
54261;SDS011;40174;52.364;6.452;2022-09-09T10:58:37;5.25;;;0.90;;
54261;SDS011;40174;52.364;6.452;2022-09-09T11:01:09;4.13;;;0.82;;
54261;SDS011;40174;52.364;6.452;2022-09-09T11:03:42;7.20;;;0.95;;
54261;SDS011;40174;52.364;6.452;2022-09-09T11:06:14;4.10;;;0.93;;
54261;SDS011;40174;52.364;6.452;2022-09-09T11:08:44;6.55;;;1.30;;
54261;SDS011;40174;52.364;6.452;2022-09-09T11:11:13;2.88;;;1.00;;
54261;SDS011;40174;52.364;6.452;2022-09-09T11:13:47;2.72;;;0.63;;
54261;SDS011;40174;52.364;6.452;2022-09-09T11:16:21;6.03;;;1.17;;
54261;SDS011;40174;52.364;6.452;2022-09-09T11:18:55;1.80;;;0.77;;
54261;SDS011;40174;52.364;6.452;2022-09-09T11:21:26;2.63;;;0.82;;
54261;SDS011;40174;52.364;6.452;2022-09-09T11:23:57;5.90;;;0.80;;
54261;SDS011;40174;52.364;6.452;2022-09-09T11:26:29;8.88;;;1.13;;
54261;SDS011;40174;52.364;6.452;2022-09-09T11:29:08;3.63;;;0.63;;
54261;SDS011;40174;52.364;6.452;2022-09-09T11:31:52;6.35;;;1.08;;
54261;SDS011;40174;52.364;6.452;2022-09-09T11:34:36;5.35;;;0.88;;
54261;SDS011;40174;52.364;6.452;2022-09-09T11:37:33;5.95;;;0.93;;
54261;SDS011;40174;52.364;6.452;2022-09-09T11:40:19;3.50;;;0.80;;
54261;SDS011;40174;52.364;6.452;2022-09-09T11:43:00;2.80;;;0.70;;
54261;SDS011;40174;52.364;6.452;2022-09-09T11:45:31;2.72;;;0.77;;
54261;SDS011;40174;52.364;6.452;2022-09-09T11:48:01;3.83;;;0.98;;
54261;SDS011;40174;52.364;6.452;2022-09-09T11:50:31;6.65;;;1.15;;
54261;SDS011;40174;52.364;6.452;2022-09-09T11:53:06;3.00;;;0.73;;
54261;SDS011;40174;52.364;6.452;2022-09-09T11:55:46;2.42;;;0.80;;
54261;SDS011;40174;52.364;6.452;2022-09-09T11:58:17;5.15;;;1.10;;
54261;SDS011;40174;52.364;6.452;2022-09-09T12:00:47;4.68;;;0.85;;
54261;SDS011;40174;52.364;6.452;2022-09-09T12:06:08;5.65;;;0.70;;
54261;SDS011;40174;52.364;6.452;2022-09-09T12:08:39;4.55;;;0.95;;
54261;SDS011;40174;52.364;6.452;2022-09-09T12:11:10;5.70;;;0.85;;
54261;SDS011;40174;52.364;6.452;2022-09-09T12:13:37;6.75;;;0.90;;
54261;SDS011;40174;52.364;6.452;2022-09-09T12:16:05;4.90;;;1.05;;
54261;SDS011;40174;52.364;6.452;2022-09-09T12:19:02;6.28;;;0.80;;
54261;SDS011;40174;52.364;6.452;2022-09-09T12:21:32;7.60;;;0.88;;
54261;SDS011;40174;52.364;6.452;2022-09-09T12:24:05;4.40;;;0.80;;
54261;SDS011;40174;52.364;6.452;2022-09-09T12:26:36;4.25;;;0.85;;
54261;SDS011;40174;52.364;6.452;2022-09-09T12:29:12;5.70;;;0.88;;
54261;SDS011;40174;52.364;6.452;2022-09-09T12:31:48;5.15;;;0.77;;
54261;SDS011;40174;52.364;6.452;2022-09-09T12:34:27;4.25;;;0.70;;
54261;SDS011;40174;52.364;6.452;2022-09-09T12:37:04;4.18;;;0.80;;
54261;SDS011;40174;52.364;6.452;2022-09-09T12:39:40;3.60;;;0.60;;
54261;SDS011;40174;52.364;6.452;2022-09-09T12:42:16;6.47;;;2.33;;
54261;SDS011;40174;52.364;6.452;2022-09-09T12:44:50;4.13;;;1.02;;
54261;SDS011;40174;52.364;6.452;2022-09-09T12:47:17;8.07;;;0.98;;
54261;SDS011;40174;52.364;6.452;2022-09-09T12:49:47;4.20;;;1.00;;
54261;SDS011;40174;52.364;6.452;2022-09-09T12:52:17;4.22;;;0.80;;
54261;SDS011;40174;52.364;6.452;2022-09-09T12:54:49;5.45;;;0.80;;
54261;SDS011;40174;52.364;6.452;2022-09-09T12:57:18;11.15;;;1.30;;
54261;SDS011;40174;52.364;6.452;2022-09-09T12:59:46;5.70;;;1.10;;
54261;SDS011;40174;52.364;6.452;2022-09-09T13:02:17;8.07;;;1.52;;
54261;SDS011;40174;52.364;6.452;2022-09-09T13:04:45;7.88;;;1.25;;
54261;SDS011;40174;52.364;6.452;2022-09-09T13:07:15;4.25;;;1.23;;
54261;SDS011;40174;52.364;6.452;2022-09-09T13:09:42;7.63;;;1.80;;
54261;SDS011;40174;52.364;6.452;2022-09-09T13:12:11;5.82;;;1.17;;
54261;SDS011;40174;52.364;6.452;2022-09-09T13:14:42;4.38;;;1.20;;
54261;SDS011;40174;52.364;6.452;2022-09-09T13:17:15;6.90;;;1.60;;
54261;SDS011;40174;52.364;6.452;2022-09-09T13:19:45;4.78;;;1.08;;
54261;SDS011;40174;52.364;6.452;2022-09-09T13:22:14;2.67;;;0.80;;
54261;SDS011;40174;52.364;6.452;2022-09-09T13:24:46;4.15;;;1.55;;
54261;SDS011;40174;52.364;6.452;2022-09-09T13:27:24;3.65;;;0.77;;
54261;SDS011;40174;52.364;6.452;2022-09-09T13:29:54;2.80;;;0.82;;
54261;SDS011;40174;52.364;6.452;2022-09-09T13:32:22;1.50;;;0.77;;
54261;SDS011;40174;52.364;6.452;2022-09-09T13:34:52;4.82;;;0.90;;
54261;SDS011;40174;52.364;6.452;2022-09-09T13:37:23;2.53;;;1.00;;
54261;SDS011;40174;52.364;6.452;2022-09-09T13:39:55;3.90;;;0.70;;
54261;SDS011;40174;52.364;6.452;2022-09-09T13:42:21;2.30;;;0.70;;
54261;SDS011;40174;52.364;6.452;2022-09-09T13:44:51;3.05;;;0.77;;
54261;SDS011;40174;52.364;6.452;2022-09-09T13:47:19;2.47;;;0.73;;
54261;SDS011;40174;52.364;6.452;2022-09-09T13:49:48;2.10;;;0.82;;
54261;SDS011;40174;52.364;6.452;2022-09-09T13:52:15;5.15;;;0.60;;
54261;SDS011;40174;52.364;6.452;2022-09-09T13:54:48;1.70;;;0.70;;
54261;SDS011;40174;52.364;6.452;2022-09-09T13:57:16;2.58;;;0.80;;
54261;SDS011;40174;52.364;6.452;2022-09-09T13:59:44;3.05;;;0.73;;
54261;SDS011;40174;52.364;6.452;2022-09-09T14:02:10;3.90;;;0.90;;
54261;SDS011;40174;52.364;6.452;2022-09-09T14:04:37;2.47;;;0.80;;
54261;SDS011;40174;52.364;6.452;2022-09-09T14:07:07;3.53;;;0.70;;
54261;SDS011;40174;52.364;6.452;2022-09-09T14:09:37;1.50;;;0.60;;
54261;SDS011;40174;52.364;6.452;2022-09-09T14:12:05;3.50;;;0.70;;
54261;SDS011;40174;52.364;6.452;2022-09-09T14:14:34;1.52;;;0.65;;
54261;SDS011;40174;52.364;6.452;2022-09-09T14:17:01;1.90;;;0.60;;
54261;SDS011;40174;52.364;6.452;2022-09-09T14:19:28;4.13;;;0.70;;
54261;SDS011;40174;52.364;6.452;2022-09-09T14:21:56;6.60;;;1.35;;
54261;SDS011;40174;52.364;6.452;2022-09-09T14:24:22;5.55;;;1.30;;
54261;SDS011;40174;52.364;6.452;2022-09-09T14:26:50;3.80;;;0.85;;
54261;SDS011;40174;52.364;6.452;2022-09-09T14:29:18;3.60;;;0.82;;
54261;SDS011;40174;52.364;6.452;2022-09-09T14:31:44;2.47;;;0.80;;
54261;SDS011;40174;52.364;6.452;2022-09-09T14:34:11;3.50;;;1.17;;
54261;SDS011;40174;52.364;6.452;2022-09-09T14:36:38;4.63;;;1.08;;
54261;SDS011;40174;52.364;6.452;2022-09-09T14:39:05;3.47;;;0.88;;
54261;SDS011;40174;52.364;6.452;2022-09-09T14:41:32;2.85;;;1.55;;
54261;SDS011;40174;52.364;6.452;2022-09-09T14:43:58;3.28;;;1.00;;
54261;SDS011;40174;52.364;6.452;2022-09-09T14:46:26;3.75;;;0.95;;
54261;SDS011;40174;52.364;6.452;2022-09-09T14:48:53;5.20;;;1.10;;
54261;SDS011;40174;52.364;6.452;2022-09-09T14:51:21;4.60;;;1.00;;
54261;SDS011;40174;52.364;6.452;2022-09-09T14:53:50;3.38;;;1.38;;
54261;SDS011;40174;52.364;6.452;2022-09-09T14:56:19;0.80;;;0.70;;
54261;SDS011;40174;52.364;6.452;2022-09-09T14:58:48;6.25;;;1.20;;
54261;SDS011;40174;52.364;6.452;2022-09-09T15:01:16;2.60;;;1.17;;
54261;SDS011;40174;52.364;6.452;2022-09-09T15:03:50;4.13;;;0.90;;
54261;SDS011;40174;52.364;6.452;2022-09-09T15:06:18;4.55;;;1.15;;
54261;SDS011;40174;52.364;6.452;2022-09-09T15:08:45;1.90;;;0.90;;
54261;SDS011;40174;52.364;6.452;2022-09-09T15:11:13;4.40;;;1.10;;
54261;SDS011;40174;52.364;6.452;2022-09-09T15:13:40;4.40;;;1.10;;
54261;SDS011;40174;52.364;6.452;2022-09-09T15:16:08;2.58;;;0.70;;
54261;SDS011;40174;52.364;6.452;2022-09-09T15:18:37;6.30;;;0.80;;